createdAt,value
2018-12-29T00:02:36.375Z,38.27
2018-12-29T00:06:38.727Z,39.37
2018-12-29T00:10:41.056Z,42.93
2018-12-29T00:14:43.362Z,41.67
2018-12-29T00:18:45.660Z,39.57
2018-12-29T00:22:47.988Z,35.07
2018-12-29T00:26:50.267Z,36.27
2018-12-29T00:30:52.605Z,44.10
2018-12-29T00:34:54.969Z,43.87
2018-12-29T00:38:57.302Z,44.03
2018-12-29T00:42:59.679Z,36.53
2018-12-29T00:47:02.012Z,41.40
2018-12-29T00:51:04.357Z,43.17
2018-12-29T00:55:06.766Z,43.27
2018-12-29T00:59:09.100Z,46.07
2018-12-29T01:03:11.477Z,48.47
2018-12-29T01:07:13.921Z,47.17
2018-12-29T01:11:16.287Z,49.07
2018-12-29T01:15:18.596Z,49.77
2018-12-29T01:19:20.951Z,48.60
2018-12-29T01:23:23.365Z,40.23
2018-12-29T01:27:25.672Z,42.03
2018-12-29T01:31:28.032Z,44.37
2018-12-29T01:35:30.333Z,44.80
2018-12-29T01:39:32.636Z,46.10
2018-12-29T01:43:34.926Z,39.30
2018-12-29T01:47:37.258Z,39.53
2018-12-29T01:51:39.551Z,47.10
2018-12-29T01:55:41.906Z,43.33
2018-12-29T01:59:44.227Z,44.70
2018-12-29T02:03:46.597Z,42.20
2018-12-29T02:07:48.987Z,43.50
2018-12-29T02:11:51.330Z,49.47
2018-12-29T02:15:53.779Z,50.53
2018-12-29T02:19:56.087Z,51.43
2018-12-29T02:23:58.355Z,55.77
2018-12-29T02:28:00.740Z,56.50
2018-12-29T02:32:03.041Z,53.40
2018-12-29T02:36:05.376Z,54.07
2018-12-29T02:40:07.724Z,61.83
2018-12-29T02:44:10.049Z,54.53
2018-12-29T02:48:12.357Z,56.57
2018-12-29T02:52:14.621Z,54.73
2018-12-29T02:56:17.010Z,58.43
2018-12-29T03:00:19.342Z,52.20
2018-12-29T03:04:21.644Z,53.17
2018-12-29T03:08:23.962Z,54.50
2018-12-29T03:12:26.275Z,54.87
2018-12-29T03:16:28.630Z,51.70
2018-12-29T03:20:31.011Z,49.20
2018-12-29T03:24:33.349Z,50.50
2018-12-29T03:28:36.154Z,52.53
2018-12-29T03:32:38.556Z,48.17
2018-12-29T03:36:40.926Z,58.73
2018-12-29T03:40:43.264Z,53.23
2018-12-29T03:44:45.578Z,55.17
2018-12-29T03:48:47.919Z,56.30
2018-12-29T03:52:50.263Z,57.87
2018-12-29T03:56:52.584Z,58.57
2018-12-29T04:00:54.891Z,52.20
2018-12-29T04:04:57.259Z,54.27
2018-12-29T04:09:11.061Z,57.17
2018-12-29T04:13:13.352Z,55.23
2018-12-29T04:17:15.731Z,60.70
2018-12-29T04:21:18.046Z,53.00
2018-12-29T04:25:23.957Z,57.43
2018-12-29T04:29:26.286Z,54.63
2018-12-29T04:33:28.641Z,60.23
2018-12-29T04:37:30.947Z,58.60
2018-12-29T04:41:33.312Z,59.70
2018-12-29T04:45:35.631Z,58.90
2018-12-29T04:49:37.976Z,52.90
2018-12-29T04:53:40.365Z,54.67
2018-12-29T04:57:42.677Z,58.77
2018-12-29T05:01:45.006Z,53.83
2018-12-29T05:05:47.361Z,59.63
2018-12-29T05:09:49.696Z,52.53
2018-12-29T05:13:51.987Z,57.10
2018-12-29T05:17:54.280Z,54.23
2018-12-29T05:21:56.586Z,57.40
2018-12-29T05:25:58.895Z,61.83
2018-12-29T05:30:01.166Z,60.77
2018-12-29T05:34:03.488Z,56.87
2018-12-29T05:38:05.850Z,56.60
2018-12-29T05:42:08.235Z,53.77
2018-12-29T05:46:10.501Z,58.60
2018-12-29T05:50:12.827Z,56.07
2018-12-29T05:54:15.151Z,54.23
2018-12-29T05:58:17.430Z,54.03
2018-12-29T06:02:19.711Z,55.47
2018-12-29T06:06:21.996Z,53.13
2018-12-29T06:10:24.351Z,46.33
2018-12-29T06:14:26.653Z,51.83
2018-12-29T06:18:29.001Z,52.37
2018-12-29T06:22:31.301Z,50.97
2018-12-29T06:26:33.669Z,54.60
2018-12-29T06:30:35.968Z,51.30
2018-12-29T06:34:39.029Z,57.00
2018-12-29T06:38:41.376Z,51.90
2018-12-29T06:42:43.693Z,56.83
2018-12-29T06:46:45.997Z,48.90
2018-12-29T06:50:48.429Z,54.17
2018-12-29T06:54:50.743Z,52.30
2018-12-29T06:58:53.033Z,48.30
2018-12-29T07:02:55.338Z,46.83
2018-12-29T07:06:57.628Z,52.23
2018-12-29T07:10:59.973Z,56.23
2018-12-29T07:15:02.313Z,50.53
2018-12-29T07:19:04.616Z,46.07
2018-12-29T07:23:06.969Z,49.87
2018-12-29T07:27:09.279Z,53.10
2018-12-29T07:31:11.583Z,55.63
2018-12-29T07:35:13.958Z,50.53
2018-12-29T07:39:16.369Z,49.03
2018-12-29T07:43:18.697Z,50.70
2018-12-29T07:47:21.018Z,49.63
2018-12-29T07:51:23.327Z,47.03
2018-12-29T07:55:25.635Z,47.30
2018-12-29T07:59:28.048Z,49.63
2018-12-29T08:03:30.365Z,45.33
2018-12-29T08:07:32.722Z,42.60
2018-12-29T08:11:35.202Z,45.17
2018-12-29T08:15:37.569Z,48.80
2018-12-29T08:19:39.889Z,60.60
2018-12-29T08:23:42.234Z,58.50
2018-12-29T08:27:44.569Z,49.57
2018-12-29T08:31:46.859Z,58.77
2018-12-29T08:35:49.217Z,55.33
2018-12-29T08:39:51.561Z,45.27
2018-12-29T08:43:53.932Z,43.77
2018-12-29T08:47:56.303Z,43.37
2018-12-29T08:51:58.667Z,39.23
2018-12-29T08:56:01.024Z,45.47
2018-12-29T09:00:03.848Z,47.37
2018-12-29T09:04:06.136Z,43.10
2018-12-29T09:08:08.453Z,40.27
2018-12-29T09:12:10.806Z,42.97
2018-12-29T09:16:13.122Z,42.33
2018-12-29T09:20:15.481Z,43.00
2018-12-29T09:24:17.827Z,41.10
2018-12-29T09:28:20.169Z,41.87
2018-12-29T09:32:22.467Z,50.87
2018-12-29T09:36:24.830Z,51.10
2018-12-29T09:40:27.252Z,41.97
2018-12-29T09:44:29.562Z,50.07
2018-12-29T09:48:31.928Z,43.50
2018-12-29T09:52:34.233Z,43.00
2018-12-29T09:56:36.567Z,40.60
2018-12-29T10:00:38.844Z,42.93
2018-12-29T10:04:41.221Z,42.50
2018-12-29T10:08:43.482Z,39.73
2018-12-29T10:12:45.797Z,36.37
2018-12-29T10:16:48.088Z,39.90
2018-12-29T10:20:50.397Z,36.57
2018-12-29T10:24:52.689Z,37.83
2018-12-29T10:28:55.038Z,38.13
2018-12-29T10:32:57.341Z,41.20
2018-12-29T10:36:59.680Z,41.20
2018-12-29T10:41:02.096Z,38.40
2018-12-29T10:45:04.568Z,40.63
2018-12-29T10:49:06.933Z,34.27
2018-12-29T10:53:09.282Z,37.80
2018-12-29T10:57:11.584Z,34.83
2018-12-29T11:01:13.911Z,31.47
2018-12-29T11:05:16.312Z,38.47
2018-12-29T11:09:18.646Z,37.33
2018-12-29T11:13:20.991Z,31.63
2018-12-29T11:17:23.318Z,34.30
2018-12-29T11:21:25.651Z,34.93
2018-12-29T11:25:28.333Z,38.70
2018-12-29T11:29:30.751Z,37.70
2018-12-29T11:33:33.069Z,35.63
2018-12-29T11:37:35.421Z,35.30
2018-12-29T11:41:37.750Z,36.43
2018-12-29T11:45:40.063Z,34.70
2018-12-29T11:49:42.342Z,37.20
2018-12-29T11:53:44.717Z,36.70
2018-12-29T11:57:47.082Z,32.23
2018-12-29T12:01:49.417Z,32.70
2018-12-29T12:05:51.784Z,32.10
2018-12-29T12:09:54.164Z,31.80
2018-12-29T12:13:56.508Z,29.03
2018-12-29T12:17:58.929Z,33.57
2018-12-29T12:22:01.319Z,37.83
2018-12-29T12:26:03.661Z,27.43
2018-12-29T12:30:06.738Z,25.70
2018-12-29T12:34:09.081Z,23.70
2018-12-29T12:38:11.474Z,25.93
2018-12-29T12:42:13.880Z,26.03
2018-12-29T12:46:16.295Z,24.47
2018-12-29T12:50:18.669Z,24.93
2018-12-29T12:54:21.016Z,24.10
2018-12-29T12:58:23.369Z,23.87
2018-12-29T13:02:25.731Z,24.57
2018-12-29T13:06:28.400Z,18.30
2018-12-29T13:10:30.871Z,19.20
2018-12-29T13:14:33.235Z,17.73
2018-12-29T13:18:35.579Z,18.20
2018-12-29T13:22:37.909Z,15.87
2018-12-29T13:26:40.509Z,9.80
2018-12-29T13:30:42.820Z,10.80
2018-12-29T13:34:45.168Z,11.80
2018-12-29T13:38:47.524Z,11.83
2018-12-29T13:42:49.853Z,11.90
2018-12-29T13:46:52.283Z,10.57
2018-12-29T13:50:54.700Z,11.47
2018-12-29T13:54:57.068Z,14.70
2018-12-29T13:58:59.668Z,12.63
2018-12-29T14:03:02.013Z,12.03
2018-12-29T14:07:04.374Z,13.53
2018-12-29T14:11:06.790Z,14.97
2018-12-29T14:15:09.188Z,12.47
2018-12-29T14:19:11.539Z,14.00
2018-12-29T14:23:13.927Z,13.53
2018-12-29T14:27:16.224Z,13.10
2018-12-29T14:31:18.637Z,12.43
2018-12-29T14:35:21.181Z,12.27
2018-12-29T14:39:23.554Z,11.90
2018-12-29T14:43:25.888Z,10.93
2018-12-29T14:47:28.257Z,12.20
2018-12-29T14:51:30.590Z,16.73
2018-12-29T14:55:33.079Z,12.00
2018-12-29T14:59:35.394Z,14.90
2018-12-29T15:03:37.775Z,10.33
2018-12-29T15:07:40.143Z,12.80
2018-12-29T15:11:42.578Z,14.17
2018-12-29T15:15:44.865Z,11.80
2018-12-29T15:19:47.313Z,14.67
2018-12-29T15:23:49.718Z,13.33
2018-12-29T15:27:52.057Z,13.27
2018-12-29T15:31:54.387Z,13.33
2018-12-29T15:35:56.827Z,13.87
2018-12-29T15:39:59.228Z,11.57
2018-12-29T15:44:01.588Z,13.17
2018-12-29T15:48:03.999Z,13.13
2018-12-29T15:52:06.370Z,29.57
2018-12-29T15:56:08.701Z,46.60
2018-12-29T16:00:11.064Z,20.07
2018-12-29T16:04:13.442Z,28.27
2018-12-29T16:08:15.814Z,26.30
2018-12-29T16:12:18.214Z,33.70
2018-12-29T16:16:20.606Z,35.30
2018-12-29T16:20:23.077Z,30.43
2018-12-29T16:24:25.459Z,25.97
2018-12-29T16:28:27.858Z,40.50
2018-12-29T16:32:30.513Z,14.83
2018-12-29T16:36:32.862Z,16.27
2018-12-29T16:40:35.225Z,12.73
2018-12-29T16:44:39.211Z,13.60
2018-12-29T16:48:41.543Z,11.33
2018-12-29T16:52:43.939Z,13.13
2018-12-29T16:56:46.322Z,15.00
2018-12-29T17:00:48.702Z,14.67
2018-12-29T17:04:51.022Z,15.30
2018-12-29T17:08:53.391Z,11.60
2018-12-29T17:12:55.703Z,16.97
2018-12-29T17:16:58.088Z,13.27
2018-12-29T17:21:00.433Z,12.40
2018-12-29T17:25:02.872Z,15.67
2018-12-29T17:29:05.273Z,16.23
2018-12-29T17:33:07.664Z,17.53
2018-12-29T17:37:10.034Z,14.30
2018-12-29T17:41:12.399Z,18.77
2018-12-29T17:45:14.763Z,21.77
2018-12-29T17:49:22.588Z,20.27
2018-12-29T17:53:19.461Z,19.70
2018-12-29T17:57:21.797Z,16.60
2018-12-29T18:01:24.162Z,14.13
2018-12-29T18:05:26.515Z,22.07
2018-12-29T18:09:28.907Z,27.43
2018-12-29T18:13:31.302Z,27.77
2018-12-29T18:17:33.698Z,23.97
2018-12-29T18:21:36.044Z,26.00
2018-12-29T18:25:38.488Z,36.40
2018-12-29T18:29:40.929Z,28.27
2018-12-29T18:33:43.346Z,21.87
2018-12-29T18:37:46.392Z,25.77
2018-12-29T18:41:48.867Z,27.13
2018-12-29T18:45:51.281Z,9.17
2018-12-29T18:49:54.463Z,11.83
2018-12-29T18:53:56.808Z,10.90
2018-12-29T18:57:59.151Z,13.97
2018-12-29T19:02:01.770Z,9.83
2018-12-29T19:06:04.166Z,64.60
2018-12-29T19:10:06.632Z,14.03
2018-12-29T19:14:08.994Z,20.03
2018-12-29T19:18:11.389Z,23.30
2018-12-29T19:22:13.966Z,20.67
2018-12-29T19:26:17.621Z,21.60
2018-12-29T19:30:20.027Z,13.80
2018-12-29T19:34:22.478Z,26.83
2018-12-29T19:38:24.944Z,13.63
2018-12-29T19:42:28.384Z,9.70
2018-12-29T19:46:30.774Z,10.30
2018-12-29T19:50:33.179Z,10.87
2018-12-29T19:54:35.636Z,17.87
2018-12-29T19:58:38.031Z,10.83
2018-12-29T20:02:40.564Z,10.32
2018-12-29T20:06:42.888Z,10.57
2018-12-29T20:10:45.311Z,12.73
2018-12-29T20:14:47.700Z,12.03
2018-12-29T20:18:50.449Z,10.53
2018-12-29T20:22:52.887Z,10.10
2018-12-29T20:26:55.319Z,10.57
2018-12-29T20:30:57.716Z,10.63
2018-12-29T20:35:00.182Z,10.53
2018-12-29T20:39:03.009Z,11.60
2018-12-29T20:43:05.375Z,12.73
2018-12-29T20:47:08.411Z,12.60
2018-12-29T20:51:10.790Z,15.80
2018-12-29T20:55:13.280Z,13.50
2018-12-29T20:59:15.835Z,14.07
2018-12-29T21:03:18.309Z,14.60
2018-12-29T21:07:20.708Z,13.57
2018-12-29T21:11:23.087Z,13.03
2018-12-29T21:15:25.508Z,12.87
2018-12-29T21:19:28.108Z,12.97
2018-12-29T21:23:30.500Z,15.43
2018-12-29T21:27:32.909Z,18.73
2018-12-29T21:31:35.455Z,36.90
2018-12-29T21:35:37.910Z,15.27
2018-12-29T21:39:40.470Z,20.40
2018-12-29T21:43:42.894Z,16.00
2018-12-29T21:47:45.741Z,18.50
2018-12-29T21:51:48.094Z,18.20
2018-12-29T21:55:50.528Z,17.90
2018-12-29T21:59:52.912Z,17.30
2018-12-29T22:03:55.782Z,18.17
2018-12-29T22:07:58.222Z,18.97
2018-12-29T22:12:00.883Z,19.67
2018-12-29T22:16:03.533Z,19.03
2018-12-29T22:20:06.568Z,21.33
2018-12-29T22:24:08.997Z,23.10
2018-12-29T22:28:12.018Z,22.77
2018-12-29T22:32:14.669Z,19.40
2018-12-29T22:36:17.089Z,17.37
2018-12-29T22:40:19.529Z,18.43
2018-12-29T22:44:21.974Z,21.33
2018-12-29T22:48:24.433Z,20.83
2018-12-29T22:52:26.975Z,24.33
2018-12-29T22:56:29.548Z,26.03
2018-12-29T23:00:36.540Z,21.30
2018-12-29T23:04:38.974Z,18.77
2018-12-29T23:08:41.355Z,22.37
2018-12-29T23:12:43.736Z,22.93
2018-12-29T23:16:46.299Z,21.47
2018-12-29T23:20:49.308Z,23.10
2018-12-29T23:24:51.171Z,22.03
2018-12-29T23:28:53.530Z,23.57
2018-12-29T23:32:55.924Z,22.60
2018-12-29T23:36:58.375Z,22.83
2018-12-29T23:41:00.739Z,26.77
2018-12-29T23:45:03.652Z,31.00
2018-12-29T23:49:06.039Z,21.17
2018-12-29T23:53:08.364Z,26.70
2018-12-29T23:57:10.723Z,26.60
